createdAt,value
2023-01-05T00:01:12.887Z,8.90
2023-01-05T00:03:50.495Z,8.89
2023-01-05T00:06:20.721Z,8.93
2023-01-05T00:08:53.746Z,8.94
2023-01-05T00:11:54.114Z,8.93
2023-01-05T00:14:52.892Z,8.87
2023-01-05T00:17:43.468Z,8.89
2023-01-05T00:20:43.823Z,8.92
2023-01-05T00:23:16.460Z,8.96
2023-01-05T00:25:47.134Z,9.02
2023-01-05T00:28:18.969Z,9.07
2023-01-05T00:30:49.988Z,9.10
2023-01-05T00:33:25.257Z,9.15
2023-01-05T00:36:00.543Z,9.17
2023-01-05T00:38:30.580Z,9.20
2023-01-05T00:41:00.483Z,9.23
2023-01-05T00:43:32.847Z,9.25
2023-01-05T00:46:03.089Z,9.27
2023-01-05T00:48:38.535Z,9.31
2023-01-05T00:51:13.117Z,9.33
2023-01-05T00:53:48.232Z,9.32
2023-01-05T00:56:25.419Z,9.31
2023-01-05T00:58:57.980Z,9.31
2023-01-05T01:01:28.489Z,9.30
2023-01-05T01:04:01.249Z,9.31
2023-01-05T01:06:31.950Z,9.33
2023-01-05T01:09:05.478Z,9.33
2023-01-05T01:11:37.844Z,9.33
2023-01-05T01:14:11.106Z,9.33
2023-01-05T01:16:43.700Z,9.34
2023-01-05T01:19:24.495Z,9.35
2023-01-05T01:21:55.200Z,9.34
2023-01-05T01:24:30.083Z,9.35
2023-01-05T01:27:00.378Z,9.36
2023-01-05T01:29:33.530Z,9.37
2023-01-05T01:32:11.169Z,9.37
2023-01-05T01:34:55.455Z,9.38
2023-01-05T01:37:26.159Z,9.42
2023-01-05T01:40:02.818Z,9.45
2023-01-05T01:42:35.997Z,9.47
2023-01-05T01:45:24.444Z,9.50
2023-01-05T01:48:02.722Z,9.52
2023-01-05T01:51:08.057Z,9.55
2023-01-05T01:53:56.432Z,9.57
2023-01-05T01:56:41.447Z,9.61
2023-01-05T01:59:17.828Z,9.63
2023-01-05T02:01:58.599Z,9.62
2023-01-05T02:04:38.143Z,9.61
2023-01-05T02:07:15.992Z,9.60
2023-01-05T02:09:49.935Z,9.60
2023-01-05T02:12:54.101Z,9.60
2023-01-05T02:16:22.176Z,9.59
2023-01-05T02:19:08.901Z,9.57
2023-01-05T02:21:51.822Z,9.57
2023-01-05T02:25:03.737Z,9.57
2023-01-05T02:28:18.128Z,9.54
2023-01-05T02:31:23.281Z,9.49
2023-01-05T02:34:19.658Z,9.48
2023-01-05T02:37:04.051Z,9.49
2023-01-05T02:40:21.860Z,9.52
2023-01-05T02:42:55.974Z,9.50
2023-01-05T02:45:28.092Z,9.49
2023-01-05T02:48:05.770Z,9.47
2023-01-05T02:50:54.078Z,9.45
2023-01-05T02:53:43.062Z,9.41
2023-01-05T02:56:37.152Z,9.36
2023-01-05T02:59:33.030Z,9.30
2023-01-05T03:02:22.816Z,9.22
2023-01-05T03:05:13.709Z,9.16
2023-01-05T03:07:44.235Z,9.15
2023-01-05T03:10:34.210Z,9.15
2023-01-05T03:13:31.183Z,9.14
2023-01-05T03:16:09.195Z,9.13
2023-01-05T03:19:03.030Z,9.14
2023-01-05T03:21:52.710Z,9.15
2023-01-05T03:24:41.805Z,9.16
2023-01-05T03:27:35.596Z,9.19
2023-01-05T03:30:27.004Z,9.22
2023-01-05T03:33:28.898Z,9.24
2023-01-05T03:36:02.032Z,9.25
2023-01-05T03:38:46.545Z,9.26
2023-01-05T03:41:31.001Z,9.26
2023-01-05T03:44:13.227Z,9.26
2023-01-05T03:46:45.924Z,9.26
2023-01-05T03:49:20.784Z,9.26
2023-01-05T03:51:57.118Z,9.26
2023-01-05T03:54:36.127Z,9.26
2023-01-05T03:57:49.797Z,9.25
2023-01-05T04:00:31.908Z,9.22
2023-01-05T04:03:15.081Z,9.21
2023-01-05T04:05:50.876Z,9.17
2023-01-05T04:08:21.712Z,9.15
2023-01-05T04:11:21.558Z,9.14
2023-01-05T04:14:04.416Z,9.12
2023-01-05T04:16:57.900Z,9.13
2023-01-05T04:19:39.319Z,9.07
2023-01-05T04:22:27.601Z,9.07
2023-01-05T04:25:12.072Z,9.09
2023-01-05T04:28:01.548Z,9.12
2023-01-05T04:30:51.083Z,9.13
2023-01-05T04:34:01.331Z,9.14
2023-01-05T04:37:25.354Z,9.12
2023-01-05T04:40:06.388Z,9.12
2023-01-05T04:42:50.026Z,9.14
2023-01-05T04:45:28.128Z,9.16
2023-01-05T04:48:12.500Z,9.19
2023-01-05T04:50:56.988Z,9.20
2023-01-05T04:53:36.353Z,9.21
2023-01-05T04:56:17.608Z,9.24
2023-01-05T04:58:50.692Z,9.24
2023-01-05T05:01:34.670Z,9.25
2023-01-05T05:04:14.986Z,9.25
2023-01-05T05:07:13.316Z,9.27
2023-01-05T05:09:56.102Z,9.28
2023-01-05T05:12:31.343Z,9.31
2023-01-05T05:15:07.614Z,9.34
2023-01-05T05:17:43.664Z,9.38
2023-01-05T05:20:16.443Z,9.39
2023-01-05T05:23:00.528Z,9.37
2023-01-05T05:25:36.788Z,9.36
2023-01-05T05:28:09.256Z,9.35
2023-01-05T05:30:43.268Z,9.37
2023-01-05T05:33:23.033Z,9.39
2023-01-05T05:36:18.659Z,9.37
2023-01-05T05:39:02.730Z,9.36
2023-01-05T05:41:43.341Z,9.37
2023-01-05T05:44:42.337Z,9.39
2023-01-05T05:47:35.877Z,9.38
2023-01-05T05:50:14.761Z,9.39
2023-01-05T05:52:48.797Z,9.38
2023-01-05T05:55:27.459Z,9.40
2023-01-05T05:58:04.192Z,9.42
2023-01-05T06:00:53.508Z,9.43
2023-01-05T06:03:52.785Z,9.44
2023-01-05T06:06:23.089Z,9.44
2023-01-05T06:08:54.586Z,9.45
2023-01-05T06:11:36.225Z,9.45
2023-01-05T06:14:10.968Z,9.45
2023-01-05T06:16:42.705Z,9.45
2023-01-05T06:19:19.686Z,9.46
2023-01-05T06:21:50.961Z,9.46
2023-01-05T06:24:22.276Z,9.48
2023-01-05T06:27:10.653Z,9.48
2023-01-05T06:29:46.819Z,9.49
2023-01-05T06:32:17.205Z,9.49
2023-01-05T06:34:51.361Z,9.51
2023-01-05T06:37:24.456Z,9.52
2023-01-05T06:40:02.890Z,9.50
2023-01-05T06:42:33.524Z,9.48
2023-01-05T06:45:08.851Z,9.46
2023-01-05T06:47:54.748Z,9.45
2023-01-05T06:50:27.583Z,9.43
2023-01-05T06:52:59.908Z,9.42
2023-01-05T06:55:29.991Z,9.40
2023-01-05T06:58:06.241Z,9.39
2023-01-05T07:00:51.364Z,9.37
2023-01-05T07:03:24.004Z,9.35
2023-01-05T07:05:56.314Z,9.34
2023-01-05T07:08:36.852Z,9.37
2023-01-05T07:11:07.046Z,9.44
2023-01-05T07:13:43.742Z,9.55
2023-01-05T07:16:17.237Z,9.61
2023-01-05T07:18:47.469Z,9.68
2023-01-05T07:21:20.384Z,9.72
2023-01-05T07:23:50.567Z,9.76
2023-01-05T07:26:20.206Z,9.78
2023-01-05T07:28:52.134Z,9.81
2023-01-05T07:31:24.206Z,9.77
2023-01-05T07:33:57.576Z,9.81
2023-01-05T07:36:27.924Z,9.85
2023-01-05T07:39:00.283Z,9.87
2023-01-05T07:41:30.431Z,9.89
2023-01-05T07:44:03.791Z,9.90
2023-01-05T07:46:37.157Z,9.91
2023-01-05T07:49:16.277Z,9.92
2023-01-05T07:51:46.316Z,9.94
2023-01-05T07:54:23.270Z,9.98
2023-01-05T07:56:56.029Z,10.03
2023-01-05T07:59:30.611Z,10.07
2023-01-05T08:02:01.595Z,10.10
2023-01-05T08:04:31.693Z,10.13
2023-01-05T08:07:02.494Z,10.15
2023-01-05T08:10:23.479Z,10.16
2023-01-05T08:13:11.600Z,10.15
2023-01-05T08:15:50.769Z,10.16
2023-01-05T08:18:22.181Z,10.18
2023-01-05T08:21:04.505Z,10.19
2023-01-05T08:23:33.772Z,10.20
2023-01-05T08:26:10.788Z,10.23
2023-01-05T08:28:45.389Z,10.25
2023-01-05T08:31:30.062Z,10.26
2023-01-05T08:34:05.437Z,10.26
2023-01-05T08:36:48.533Z,10.22
2023-01-05T08:39:23.068Z,10.21
2023-01-05T08:42:02.798Z,10.21
2023-01-05T08:44:39.550Z,10.23
2023-01-05T08:47:18.182Z,10.24
2023-01-05T08:49:52.989Z,10.26
2023-01-05T08:52:23.509Z,10.24
2023-01-05T08:54:52.943Z,10.21
2023-01-05T08:57:24.324Z,10.17
2023-01-05T08:59:58.516Z,10.13
2023-01-05T09:02:28.134Z,10.10
2023-01-05T09:04:57.583Z,10.07
2023-01-05T09:07:30.281Z,10.05
2023-01-05T09:10:23.963Z,10.01
2023-01-05T09:12:59.361Z,9.99
2023-01-05T09:15:32.284Z,9.97
2023-01-05T09:18:01.701Z,9.95
2023-01-05T09:20:36.105Z,9.93
2023-01-05T09:23:08.582Z,9.93
2023-01-05T09:25:39.677Z,9.94
2023-01-05T09:28:10.028Z,9.95
2023-01-05T09:30:47.013Z,9.95
2023-01-05T09:33:19.474Z,9.93
2023-01-05T09:35:57.968Z,9.90
2023-01-05T09:38:27.466Z,9.87
2023-01-05T09:41:07.946Z,9.85
2023-01-05T09:43:44.505Z,9.85
2023-01-05T09:46:22.584Z,9.84
2023-01-05T09:49:01.369Z,9.87
2023-01-05T09:51:37.164Z,9.93
2023-01-05T09:54:10.416Z,10.01
2023-01-05T09:59:48.498Z,10.07
2023-01-05T10:02:40.687Z,10.06
2023-01-05T10:05:14.415Z,10.04
2023-01-05T10:08:11.457Z,10.03
2023-01-05T10:11:20.368Z,10.10
2023-01-05T10:14:14.961Z,10.24
2023-01-05T10:16:53.743Z,10.42
2023-01-05T10:19:36.978Z,10.63
2023-01-05T10:22:57.910Z,10.83
2023-01-05T10:25:48.997Z,10.90
2023-01-05T10:28:30.352Z,10.86
2023-01-05T10:31:03.039Z,10.82
2023-01-05T10:33:58.989Z,10.81
2023-01-05T10:37:10.547Z,10.81
2023-01-05T10:39:58.036Z,10.90
2023-01-05T10:43:01.040Z,11.04
2023-01-05T10:45:32.527Z,11.14
2023-01-05T10:48:02.359Z,11.12
2023-01-05T10:50:41.208Z,11.10
2023-01-05T10:53:15.585Z,11.20
2023-01-05T10:56:19.717Z,11.45
2023-01-05T10:59:19.300Z,11.66
2023-01-05T11:02:20.226Z,11.87
2023-01-05T11:05:03.017Z,12.12
2023-01-05T11:08:00.702Z,12.42
2023-01-05T11:11:01.960Z,12.92
2023-01-05T11:13:40.979Z,13.39
2023-01-05T11:16:33.651Z,13.62
2023-01-05T11:19:21.679Z,13.59
2023-01-05T11:21:59.800Z,13.35
2023-01-05T11:24:37.631Z,13.19
2023-01-05T11:27:24.093Z,12.92
2023-01-05T11:30:28.797Z,12.42
2023-01-05T11:33:01.946Z,11.90
2023-01-05T11:35:40.929Z,11.41
2023-01-05T11:38:29.511Z,11.05
2023-01-05T11:41:01.641Z,10.79
2023-01-05T11:43:34.183Z,10.66
2023-01-05T11:46:05.731Z,10.63
2023-01-05T11:48:40.484Z,10.61
2023-01-05T11:51:10.502Z,10.61
2023-01-05T11:53:41.212Z,10.64
2023-01-05T11:56:25.096Z,10.70
2023-01-05T11:58:58.819Z,10.73
2023-01-05T12:02:00.163Z,10.73
2023-01-05T12:04:38.161Z,10.66
2023-01-05T12:07:27.672Z,10.55
2023-01-05T12:10:39.505Z,10.48
2023-01-05T12:13:53.593Z,10.38
2023-01-05T12:16:54.818Z,10.29
2023-01-05T12:19:56.945Z,10.18
2023-01-05T12:23:02.835Z,10.07
2023-01-05T12:25:57.440Z,9.97
2023-01-05T12:30:40.292Z,9.92
2023-01-05T12:36:04.151Z,9.81
2023-01-05T12:38:46.579Z,9.74
2023-01-05T12:42:17.742Z,9.69
2023-01-05T12:45:28.068Z,9.60
2023-01-05T12:48:19.107Z,9.53
2023-01-05T12:51:27.947Z,9.49
2023-01-05T12:54:00.505Z,9.43
2023-01-05T12:56:48.298Z,9.39
2023-01-05T12:59:53.008Z,9.38
2023-01-05T13:02:54.159Z,9.35
2023-01-05T13:05:50.583Z,9.33
2023-01-05T13:08:37.840Z,9.33
2023-01-05T13:11:36.531Z,9.32
2023-01-05T13:14:17.998Z,9.30
2023-01-05T13:17:24.687Z,9.27
2023-01-05T13:20:30.456Z,9.20
2023-01-05T13:23:17.760Z,9.16
2023-01-05T13:26:04.861Z,9.15
2023-01-05T13:28:35.200Z,9.16
2023-01-05T13:32:05.232Z,9.17
2023-01-05T13:35:06.271Z,9.11
2023-01-05T13:37:53.616Z,9.06
2023-01-05T13:41:08.684Z,9.05
2023-01-05T13:43:43.996Z,9.02
2023-01-05T13:46:37.288Z,9.03
2023-01-05T13:49:37.461Z,9.03
2023-01-05T13:53:05.217Z,9.04
2023-01-05T13:55:44.313Z,9.02
2023-01-05T13:59:04.527Z,9.02
2023-01-05T14:01:43.393Z,9.00
2023-01-05T14:04:32.753Z,9.00
2023-01-05T14:07:17.241Z,9.02
2023-01-05T14:09:56.720Z,9.05
2023-01-05T14:12:43.730Z,9.07
2023-01-05T14:15:31.823Z,9.08
2023-01-05T14:18:10.886Z,9.09
2023-01-05T14:20:54.437Z,9.08
2023-01-05T14:23:25.947Z,9.05
2023-01-05T14:26:01.225Z,9.02
2023-01-05T14:28:33.345Z,8.98
2023-01-05T14:31:18.335Z,8.95
2023-01-05T14:33:56.460Z,8.92
2023-01-05T14:36:35.160Z,8.90
2023-01-05T14:39:26.167Z,8.91
2023-01-05T14:42:13.626Z,8.87
2023-01-05T14:45:09.722Z,8.84
2023-01-05T14:47:49.920Z,8.73
2023-01-05T14:50:47.309Z,8.63
2023-01-05T14:53:43.549Z,8.55
2023-01-05T14:56:26.598Z,8.52
2023-01-05T14:58:57.014Z,8.51
2023-01-05T15:01:58.282Z,8.50
2023-01-05T15:04:39.376Z,8.46
2023-01-05T15:07:46.221Z,8.47
2023-01-05T15:10:57.400Z,8.46
2023-01-05T15:14:25.363Z,8.46
2023-01-05T15:17:37.361Z,8.45
2023-01-05T15:20:25.060Z,8.41
2023-01-05T15:23:40.040Z,8.37
2023-01-05T15:26:30.354Z,8.29
2023-01-05T15:29:36.693Z,8.24
2023-01-05T15:32:32.830Z,8.20
2023-01-05T15:35:26.725Z,8.17
2023-01-05T15:37:56.166Z,8.13
2023-01-05T15:40:25.576Z,8.13
2023-01-05T15:43:03.183Z,8.11
2023-01-05T15:45:39.752Z,8.07
2023-01-05T15:48:17.202Z,8.02
2023-01-05T15:50:51.653Z,7.96
2023-01-05T15:53:33.202Z,7.92
2023-01-05T15:56:04.956Z,7.87
2023-01-05T15:58:46.326Z,7.81
2023-01-05T16:01:16.906Z,7.77
2023-01-05T16:03:49.011Z,7.77
2023-01-05T16:06:26.692Z,7.75
2023-01-05T16:09:07.875Z,7.68
2023-01-05T16:11:48.801Z,7.59
2023-01-05T16:14:32.898Z,7.51
2023-01-05T16:17:20.372Z,7.42
2023-01-05T16:20:12.471Z,7.28
2023-01-05T16:23:08.220Z,7.17
2023-01-05T16:25:52.561Z,7.04
2023-01-05T16:28:24.601Z,6.89
2023-01-05T16:30:54.989Z,6.79
2023-01-05T16:33:38.979Z,6.62
2023-01-05T16:36:23.724Z,6.57
2023-01-05T16:38:53.039Z,6.54
2023-01-05T16:41:30.863Z,6.49
2023-01-05T16:44:04.046Z,6.46
2023-01-05T16:46:39.245Z,6.43
2023-01-05T16:49:43.503Z,6.39
2023-01-05T16:52:24.959Z,6.34
2023-01-05T16:55:36.987Z,6.32
2023-01-05T16:58:32.093Z,6.32
2023-01-05T17:01:23.686Z,6.32
2023-01-05T17:03:54.494Z,6.29
2023-01-05T17:06:31.344Z,6.28
2023-01-05T17:09:18.091Z,6.27
2023-01-05T17:11:54.218Z,6.27
2023-01-05T17:14:29.675Z,6.27
2023-01-05T17:17:02.289Z,6.23
2023-01-05T17:19:49.840Z,6.20
2023-01-05T17:22:23.004Z,6.13
2023-01-05T17:24:54.848Z,6.11
2023-01-05T17:27:27.611Z,6.09
2023-01-05T17:29:57.383Z,6.14
2023-01-05T17:32:29.433Z,6.27
2023-01-05T17:34:59.208Z,6.31
2023-01-05T17:37:28.836Z,6.25
2023-01-05T17:39:59.783Z,6.20
2023-01-05T17:42:44.840Z,6.18
2023-01-05T17:45:20.989Z,6.18
2023-01-05T17:47:55.277Z,6.17
2023-01-05T17:53:07.417Z,6.09
2023-01-05T17:55:37.486Z,6.07
2023-01-05T17:58:07.495Z,6.04
2023-01-05T18:03:27.090Z,5.99
2023-01-05T18:06:01.161Z,6.00
2023-01-05T18:08:34.138Z,6.04
2023-01-05T18:11:08.103Z,6.11
2023-01-05T18:13:40.901Z,6.09
2023-01-05T18:16:15.596Z,6.06
2023-01-05T18:18:47.723Z,5.98
2023-01-05T18:21:18.009Z,5.88
2023-01-05T18:23:49.831Z,5.84
2023-01-05T18:26:21.551Z,5.81
2023-01-05T18:28:53.305Z,5.76
2023-01-05T18:31:27.237Z,5.72
2023-01-05T18:34:00.696Z,5.69
2023-01-05T18:36:31.142Z,5.68
2023-01-05T18:39:30.962Z,5.75
2023-01-05T18:42:07.877Z,5.76
2023-01-05T18:44:40.301Z,5.71
2023-01-05T18:47:19.318Z,5.70
2023-01-05T18:50:22.777Z,5.74
2023-01-05T18:53:12.168Z,5.68
2023-01-05T18:55:55.750Z,5.63
2023-01-05T18:58:30.221Z,5.59
2023-01-05T19:01:02.232Z,5.60
2023-01-05T19:03:38.131Z,5.51
2023-01-05T19:06:47.915Z,5.48
2023-01-05T19:13:42.954Z,5.43
2023-01-05T19:17:12.995Z,5.46
2023-01-05T19:20:06.481Z,5.48
2023-01-05T19:22:48.118Z,5.49
2023-01-05T19:25:31.876Z,5.50
2023-01-05T19:29:23.313Z,5.44
2023-01-05T19:31:43.980Z,5.44
2023-01-05T19:34:54.252Z,5.48
2023-01-05T19:37:46.561Z,5.48
2023-01-05T19:40:47.472Z,5.44
2023-01-05T19:43:41.047Z,5.43
2023-01-05T19:53:06.976Z,5.45
2023-01-05T19:56:02.847Z,5.46
2023-01-05T19:58:38.221Z,5.46
2023-01-05T20:01:21.348Z,5.48
2023-01-05T20:04:04.345Z,5.46
2023-01-05T20:06:42.805Z,5.43
2023-01-05T20:12:15.857Z,5.36
2023-01-05T20:15:07.642Z,5.34
2023-01-05T20:18:22.345Z,5.30
2023-01-05T20:20:56.224Z,5.29
2023-01-05T20:23:53.287Z,5.30
2023-01-05T20:26:46.735Z,5.26
2023-01-05T20:29:41.196Z,5.25
2023-01-05T20:32:31.610Z,5.24
2023-01-05T20:35:07.298Z,5.23
2023-01-05T20:38:05.691Z,5.25
2023-01-05T20:40:41.071Z,5.15
2023-01-05T20:43:17.239Z,5.14
2023-01-05T20:45:56.615Z,5.15
2023-01-05T20:48:35.600Z,5.07
2023-01-05T20:51:11.813Z,5.08
2023-01-05T20:53:48.967Z,5.11
2023-01-05T20:56:45.580Z,5.12
2023-01-05T21:00:04.489Z,5.10
2023-01-05T21:02:43.016Z,5.09
2023-01-05T21:05:19.130Z,5.12
2023-01-05T21:07:58.394Z,5.16
2023-01-05T21:10:38.950Z,5.17
2023-01-05T21:13:30.762Z,5.20
2023-01-05T21:16:07.679Z,5.21
2023-01-05T21:18:40.028Z,5.19
2023-01-05T21:21:19.048Z,5.20
2023-01-05T21:23:53.767Z,5.23
2023-01-05T21:26:28.362Z,5.23
2023-01-05T21:29:00.501Z,5.21
2023-01-05T21:31:38.138Z,5.21
2023-01-05T21:34:15.334Z,5.21
2023-01-05T21:36:53.615Z,5.22
2023-01-05T21:39:42.131Z,5.21
2023-01-05T21:42:37.248Z,5.21
2023-01-05T21:45:51.505Z,5.14
2023-01-05T21:49:01.294Z,5.05
2023-01-05T21:51:53.114Z,5.06
2023-01-05T21:54:47.397Z,5.07
2023-01-05T21:57:37.182Z,5.09
2023-01-05T22:00:23.399Z,5.10
2023-01-05T22:02:56.458Z,5.11
2023-01-05T22:05:29.343Z,5.21
2023-01-05T22:07:58.949Z,5.42
2023-01-05T22:10:31.299Z,5.58
2023-01-05T22:13:00.704Z,5.65
2023-01-05T22:16:01.257Z,5.63
2023-01-05T22:18:36.113Z,5.54
2023-01-05T22:21:18.537Z,5.49
2023-01-05T22:24:21.251Z,5.41
2023-01-05T22:28:02.840Z,5.36
2023-01-05T22:31:06.264Z,5.30
2023-01-05T22:33:45.568Z,5.26
2023-01-05T22:36:20.623Z,5.24
2023-01-05T22:38:58.081Z,5.23
2023-01-05T22:41:33.912Z,5.21
2023-01-05T22:44:06.688Z,5.18
2023-01-05T22:46:36.806Z,5.18
2023-01-05T22:49:18.537Z,5.18
2023-01-05T22:51:52.274Z,5.22
2023-01-05T22:54:30.616Z,5.24
2023-01-05T22:57:00.916Z,5.20
2023-01-05T22:59:30.485Z,5.18
2023-01-05T23:02:03.055Z,5.17
2023-01-05T23:04:36.027Z,5.14
2023-01-05T23:07:05.472Z,5.11
2023-01-05T23:09:38.354Z,5.13
2023-01-05T23:12:12.045Z,5.15
2023-01-05T23:14:46.892Z,5.17
2023-01-05T23:17:17.820Z,5.14
2023-01-05T23:19:49.835Z,5.09
2023-01-05T23:22:21.810Z,5.06
2023-01-05T23:24:54.480Z,5.07
2023-01-05T23:27:25.783Z,5.05
2023-01-05T23:30:02.288Z,5.02
2023-01-05T23:32:34.008Z,5.00
2023-01-05T23:35:08.168Z,4.99
2023-01-05T23:37:43.187Z,4.92
2023-01-05T23:40:16.217Z,4.89
2023-01-05T23:42:49.384Z,4.90
2023-01-05T23:45:19.817Z,4.93
2023-01-05T23:47:51.249Z,4.93
2023-01-05T23:50:22.854Z,4.86
2023-01-05T23:52:53.078Z,4.85
2023-01-05T23:55:25.719Z,4.86
2023-01-05T23:57:58.387Z,4.89
